sensor_id;sensor_type;location;lat;lon;timestamp;temperature;humidity
81630;DHT22;71039;49.500;10.418;2023-07-22T00:00:23;17.50;54.10
81630;DHT22;71039;49.500;10.418;2023-07-22T00:02:49;17.50;54.10
81630;DHT22;71039;49.500;10.418;2023-07-22T00:05:14;17.50;54.20
81630;DHT22;71039;49.500;10.418;2023-07-22T00:07:40;17.50;54.30
81630;DHT22;71039;49.500;10.418;2023-07-22T00:10:06;17.50;54.40
81630;DHT22;71039;49.500;10.418;2023-07-22T00:12:35;17.50;54.40
81630;DHT22;71039;49.500;10.418;2023-07-22T00:15:00;17.50;54.50
81630;DHT22;71039;49.500;10.418;2023-07-22T00:17:26;17.50;54.30
81630;DHT22;71039;49.500;10.418;2023-07-22T00:19:51;17.40;54.30
81630;DHT22;71039;49.500;10.418;2023-07-22T00:22:17;17.40;54.30
81630;DHT22;71039;49.500;10.418;2023-07-22T00:24:43;17.40;54.30
81630;DHT22;71039;49.500;10.418;2023-07-22T00:27:08;17.30;54.30
81630;DHT22;71039;49.500;10.418;2023-07-22T00:29:34;17.30;54.40
81630;DHT22;71039;49.500;10.418;2023-07-22T00:32:00;17.20;54.40
81630;DHT22;71039;49.500;10.418;2023-07-22T00:34:25;17.20;54.50
81630;DHT22;71039;49.500;10.418;2023-07-22T00:36:51;17.20;54.50
81630;DHT22;71039;49.500;10.418;2023-07-22T00:39:16;17.20;54.60
81630;DHT22;71039;49.500;10.418;2023-07-22T00:41:42;17.10;54.60
81630;DHT22;71039;49.500;10.418;2023-07-22T00:44:07;17.00;54.70
81630;DHT22;71039;49.500;10.418;2023-07-22T00:46:33;17.00;54.70
81630;DHT22;71039;49.500;10.418;2023-07-22T00:48:59;17.00;54.80
81630;DHT22;71039;49.500;10.418;2023-07-22T00:51:24;17.00;54.80
81630;DHT22;71039;49.500;10.418;2023-07-22T00:53:50;16.90;54.90
81630;DHT22;71039;49.500;10.418;2023-07-22T00:56:15;16.90;55.00
81630;DHT22;71039;49.500;10.418;2023-07-22T00:58:41;16.90;55.10
81630;DHT22;71039;49.500;10.418;2023-07-22T01:01:06;16.90;55.20
81630;DHT22;71039;49.500;10.418;2023-07-22T01:03:32;16.90;55.40
81630;DHT22;71039;49.500;10.418;2023-07-22T01:05:58;16.80;55.40
81630;DHT22;71039;49.500;10.418;2023-07-22T01:08:24;16.80;55.50
81630;DHT22;71039;49.500;10.418;2023-07-22T01:10:50;16.80;55.50
81630;DHT22;71039;49.500;10.418;2023-07-22T01:13:15;16.80;55.70
81630;DHT22;71039;49.500;10.418;2023-07-22T01:15:41;16.80;55.70
81630;DHT22;71039;49.500;10.418;2023-07-22T01:18:07;16.80;55.70
81630;DHT22;71039;49.500;10.418;2023-07-22T01:20:33;16.80;55.70
81630;DHT22;71039;49.500;10.418;2023-07-22T01:22:59;16.80;55.80
81630;DHT22;71039;49.500;10.418;2023-07-22T01:25:24;16.70;55.80
81630;DHT22;71039;49.500;10.418;2023-07-22T01:27:51;16.80;55.80
81630;DHT22;71039;49.500;10.418;2023-07-22T01:30:18;16.70;55.80
81630;DHT22;71039;49.500;10.418;2023-07-22T01:32:43;16.70;55.90
81630;DHT22;71039;49.500;10.418;2023-07-22T01:35:09;16.70;56.00
81630;DHT22;71039;49.500;10.418;2023-07-22T01:37:35;16.70;56.00
81630;DHT22;71039;49.500;10.418;2023-07-22T01:40:01;16.70;56.10
81630;DHT22;71039;49.500;10.418;2023-07-22T01:42:27;16.70;56.20
81630;DHT22;71039;49.500;10.418;2023-07-22T01:44:53;16.70;56.20
81630;DHT22;71039;49.500;10.418;2023-07-22T01:47:18;16.70;56.30
81630;DHT22;71039;49.500;10.418;2023-07-22T01:49:44;16.70;56.40
81630;DHT22;71039;49.500;10.418;2023-07-22T01:52:10;16.70;56.50
81630;DHT22;71039;49.500;10.418;2023-07-22T01:54:35;16.70;56.50
81630;DHT22;71039;49.500;10.418;2023-07-22T01:57:01;16.70;56.50
81630;DHT22;71039;49.500;10.418;2023-07-22T01:59:27;16.70;56.50
81630;DHT22;71039;49.500;10.418;2023-07-22T02:01:52;16.70;56.60
81630;DHT22;71039;49.500;10.418;2023-07-22T02:04:18;16.70;56.60
81630;DHT22;71039;49.500;10.418;2023-07-22T02:06:43;16.70;56.60
81630;DHT22;71039;49.500;10.418;2023-07-22T02:09:09;16.70;56.40
81630;DHT22;71039;49.500;10.418;2023-07-22T02:11:35;16.70;56.30
81630;DHT22;71039;49.500;10.418;2023-07-22T02:14:01;16.70;56.20
81630;DHT22;71039;49.500;10.418;2023-07-22T02:16:26;16.70;56.20
81630;DHT22;71039;49.500;10.418;2023-07-22T02:18:52;16.70;56.20
81630;DHT22;71039;49.500;10.418;2023-07-22T02:21:17;16.70;56.30
81630;DHT22;71039;49.500;10.418;2023-07-22T02:23:43;16.70;56.30
81630;DHT22;71039;49.500;10.418;2023-07-22T02:26:08;16.70;56.30
81630;DHT22;71039;49.500;10.418;2023-07-22T02:28:34;16.70;56.40
81630;DHT22;71039;49.500;10.418;2023-07-22T02:31:02;16.70;56.50
81630;DHT22;71039;49.500;10.418;2023-07-22T02:33:28;16.70;56.60
81630;DHT22;71039;49.500;10.418;2023-07-22T02:35:53;16.70;56.60
81630;DHT22;71039;49.500;10.418;2023-07-22T02:38:19;16.70;56.70
81630;DHT22;71039;49.500;10.418;2023-07-22T02:40:44;16.70;56.80
81630;DHT22;71039;49.500;10.418;2023-07-22T02:43:10;16.70;56.80
81630;DHT22;71039;49.500;10.418;2023-07-22T02:45:36;16.70;56.90
81630;DHT22;71039;49.500;10.418;2023-07-22T02:48:02;16.70;56.90
81630;DHT22;71039;49.500;10.418;2023-07-22T02:50:27;16.70;56.90
81630;DHT22;71039;49.500;10.418;2023-07-22T02:52:53;16.70;56.90
81630;DHT22;71039;49.500;10.418;2023-07-22T02:55:19;16.70;56.90
81630;DHT22;71039;49.500;10.418;2023-07-22T02:57:45;16.70;57.00
81630;DHT22;71039;49.500;10.418;2023-07-22T03:00:11;16.70;57.10
81630;DHT22;71039;49.500;10.418;2023-07-22T03:02:38;16.70;57.10
81630;DHT22;71039;49.500;10.418;2023-07-22T03:05:05;16.70;57.10
81630;DHT22;71039;49.500;10.418;2023-07-22T03:07:31;16.70;57.20
81630;DHT22;71039;49.500;10.418;2023-07-22T03:09:56;16.80;57.20
81630;DHT22;71039;49.500;10.418;2023-07-22T03:12:22;16.80;57.10
81630;DHT22;71039;49.500;10.418;2023-07-22T03:14:47;16.80;57.10
81630;DHT22;71039;49.500;10.418;2023-07-22T03:17:13;16.80;57.10
81630;DHT22;71039;49.500;10.418;2023-07-22T03:19:38;16.80;57.20
81630;DHT22;71039;49.500;10.418;2023-07-22T03:22:04;16.80;57.20
81630;DHT22;71039;49.500;10.418;2023-07-22T03:24:30;16.80;57.20
81630;DHT22;71039;49.500;10.418;2023-07-22T03:26:55;16.80;57.20
81630;DHT22;71039;49.500;10.418;2023-07-22T03:29:21;16.80;57.20
81630;DHT22;71039;49.500;10.418;2023-07-22T03:31:46;16.80;57.30
81630;DHT22;71039;49.500;10.418;2023-07-22T03:34:12;16.80;57.20
81630;DHT22;71039;49.500;10.418;2023-07-22T03:36:37;16.80;57.30
81630;DHT22;71039;49.500;10.418;2023-07-22T03:39:03;16.80;57.30
81630;DHT22;71039;49.500;10.418;2023-07-22T03:41:28;16.80;57.30
81630;DHT22;71039;49.500;10.418;2023-07-22T03:43:54;16.80;57.20
81630;DHT22;71039;49.500;10.418;2023-07-22T03:46:19;16.80;57.10
81630;DHT22;71039;49.500;10.418;2023-07-22T03:48:45;16.80;57.10
81630;DHT22;71039;49.500;10.418;2023-07-22T03:51:10;16.80;57.10
81630;DHT22;71039;49.500;10.418;2023-07-22T03:53:36;16.80;57.10
81630;DHT22;71039;49.500;10.418;2023-07-22T03:56:01;16.80;57.10
81630;DHT22;71039;49.500;10.418;2023-07-22T03:58:27;16.80;57.10
81630;DHT22;71039;49.500;10.418;2023-07-22T04:00:52;16.80;57.00
81630;DHT22;71039;49.500;10.418;2023-07-22T04:03:18;16.80;56.90
81630;DHT22;71039;49.500;10.418;2023-07-22T04:05:43;16.70;56.90
81630;DHT22;71039;49.500;10.418;2023-07-22T04:08:09;16.70;57.00
81630;DHT22;71039;49.500;10.418;2023-07-22T04:10:35;16.70;57.10
81630;DHT22;71039;49.500;10.418;2023-07-22T04:13:00;16.70;57.30
81630;DHT22;71039;49.500;10.418;2023-07-22T04:15:26;16.70;57.40
81630;DHT22;71039;49.500;10.418;2023-07-22T04:17:51;16.60;57.50
81630;DHT22;71039;49.500;10.418;2023-07-22T04:20:17;16.70;57.60
81630;DHT22;71039;49.500;10.418;2023-07-22T04:22:42;16.60;57.80
81630;DHT22;71039;49.500;10.418;2023-07-22T04:25:08;16.70;57.90
81630;DHT22;71039;49.500;10.418;2023-07-22T04:27:33;16.70;57.90
81630;DHT22;71039;49.500;10.418;2023-07-22T04:29:59;16.70;58.00
81630;DHT22;71039;49.500;10.418;2023-07-22T04:32:24;16.70;58.00
81630;DHT22;71039;49.500;10.418;2023-07-22T04:34:50;16.70;58.00
81630;DHT22;71039;49.500;10.418;2023-07-22T04:37:15;16.70;58.00
81630;DHT22;71039;49.500;10.418;2023-07-22T04:39:41;16.80;58.00
81630;DHT22;71039;49.500;10.418;2023-07-22T04:42:07;16.80;58.00
81630;DHT22;71039;49.500;10.418;2023-07-22T04:44:32;16.80;58.00
81630;DHT22;71039;49.500;10.418;2023-07-22T04:46:58;16.90;58.00
81630;DHT22;71039;49.500;10.418;2023-07-22T04:49:23;16.90;58.00
81630;DHT22;71039;49.500;10.418;2023-07-22T04:51:49;16.90;58.00
81630;DHT22;71039;49.500;10.418;2023-07-22T04:54:14;17.00;57.90
81630;DHT22;71039;49.500;10.418;2023-07-22T04:56:41;17.00;57.80
81630;DHT22;71039;49.500;10.418;2023-07-22T04:59:06;17.00;57.90
81630;DHT22;71039;49.500;10.418;2023-07-22T05:01:32;17.00;57.80
81630;DHT22;71039;49.500;10.418;2023-07-22T05:03:58;17.10;57.80
81630;DHT22;71039;49.500;10.418;2023-07-22T05:06:23;17.10;57.70
81630;DHT22;71039;49.500;10.418;2023-07-22T05:08:49;17.20;57.60
81630;DHT22;71039;49.500;10.418;2023-07-22T05:11:14;17.20;57.50
81630;DHT22;71039;49.500;10.418;2023-07-22T05:13:40;17.20;57.50
81630;DHT22;71039;49.500;10.418;2023-07-22T05:16:05;17.20;57.40
81630;DHT22;71039;49.500;10.418;2023-07-22T05:18:31;17.20;57.50
81630;DHT22;71039;49.500;10.418;2023-07-22T05:20:56;17.20;57.40
81630;DHT22;71039;49.500;10.418;2023-07-22T05:23:22;17.30;57.40
81630;DHT22;71039;49.500;10.418;2023-07-22T05:25:52;17.30;57.40
81630;DHT22;71039;49.500;10.418;2023-07-22T05:28:17;17.40;57.50
81630;DHT22;71039;49.500;10.418;2023-07-22T05:30:43;17.40;57.30
81630;DHT22;71039;49.500;10.418;2023-07-22T05:33:08;17.40;57.30
81630;DHT22;71039;49.500;10.418;2023-07-22T05:35:34;17.40;57.30
81630;DHT22;71039;49.500;10.418;2023-07-22T05:37:59;17.40;57.30
81630;DHT22;71039;49.500;10.418;2023-07-22T05:40:25;17.40;57.40
81630;DHT22;71039;49.500;10.418;2023-07-22T05:42:50;17.40;57.40
81630;DHT22;71039;49.500;10.418;2023-07-22T05:45:16;17.40;57.50
81630;DHT22;71039;49.500;10.418;2023-07-22T05:47:42;17.40;57.50
81630;DHT22;71039;49.500;10.418;2023-07-22T05:50:07;17.40;57.50
81630;DHT22;71039;49.500;10.418;2023-07-22T05:52:33;17.50;57.50
81630;DHT22;71039;49.500;10.418;2023-07-22T05:54:58;17.50;57.50
81630;DHT22;71039;49.500;10.418;2023-07-22T05:57:24;17.50;57.50
81630;DHT22;71039;49.500;10.418;2023-07-22T05:59:49;17.50;57.60
81630;DHT22;71039;49.500;10.418;2023-07-22T06:02:17;17.50;57.60
81630;DHT22;71039;49.500;10.418;2023-07-22T06:04:43;17.50;57.70
81630;DHT22;71039;49.500;10.418;2023-07-22T06:07:09;17.50;57.70
81630;DHT22;71039;49.500;10.418;2023-07-22T06:09:34;17.50;57.80
81630;DHT22;71039;49.500;10.418;2023-07-22T06:12:00;17.50;57.80
81630;DHT22;71039;49.500;10.418;2023-07-22T06:14:25;17.50;57.80
81630;DHT22;71039;49.500;10.418;2023-07-22T06:16:51;17.50;57.80
81630;DHT22;71039;49.500;10.418;2023-07-22T06:19:16;17.50;57.90
81630;DHT22;71039;49.500;10.418;2023-07-22T06:21:42;17.50;57.90
81630;DHT22;71039;49.500;10.418;2023-07-22T06:24:07;17.50;57.90
81630;DHT22;71039;49.500;10.418;2023-07-22T06:26:33;17.50;58.00
81630;DHT22;71039;49.500;10.418;2023-07-22T06:28:58;17.50;58.10
81630;DHT22;71039;49.500;10.418;2023-07-22T06:31:24;17.60;58.20
81630;DHT22;71039;49.500;10.418;2023-07-22T06:33:49;17.60;58.30
81630;DHT22;71039;49.500;10.418;2023-07-22T06:36:15;17.60;58.40
81630;DHT22;71039;49.500;10.418;2023-07-22T06:38:40;17.70;58.40
81630;DHT22;71039;49.500;10.418;2023-07-22T06:41:06;17.70;58.40
81630;DHT22;71039;49.500;10.418;2023-07-22T06:43:31;17.80;58.40
81630;DHT22;71039;49.500;10.418;2023-07-22T06:45:57;17.80;58.30
81630;DHT22;71039;49.500;10.418;2023-07-22T06:48:22;17.80;58.30
81630;DHT22;71039;49.500;10.418;2023-07-22T06:50:49;17.80;58.30
81630;DHT22;71039;49.500;10.418;2023-07-22T06:53:14;17.80;58.40
81630;DHT22;71039;49.500;10.418;2023-07-22T06:55:47;17.80;58.40
81630;DHT22;71039;49.500;10.418;2023-07-22T06:58:13;17.80;58.40
81630;DHT22;71039;49.500;10.418;2023-07-22T07:00:38;17.90;58.40
81630;DHT22;71039;49.500;10.418;2023-07-22T07:03:04;17.90;58.40
81630;DHT22;71039;49.500;10.418;2023-07-22T07:05:29;17.90;58.40
81630;DHT22;71039;49.500;10.418;2023-07-22T07:07:56;17.90;58.40
81630;DHT22;71039;49.500;10.418;2023-07-22T07:10:21;17.90;58.40
81630;DHT22;71039;49.500;10.418;2023-07-22T07:12:47;18.00;58.40
81630;DHT22;71039;49.500;10.418;2023-07-22T07:15:12;18.00;58.40
81630;DHT22;71039;49.500;10.418;2023-07-22T07:17:38;18.00;58.40
81630;DHT22;71039;49.500;10.418;2023-07-22T07:20:04;18.00;58.30
81630;DHT22;71039;49.500;10.418;2023-07-22T07:22:30;18.00;58.30
81630;DHT22;71039;49.500;10.418;2023-07-22T07:24:55;18.00;58.40
81630;DHT22;71039;49.500;10.418;2023-07-22T07:27:21;18.00;58.40
81630;DHT22;71039;49.500;10.418;2023-07-22T07:29:46;18.00;58.50
81630;DHT22;71039;49.500;10.418;2023-07-22T07:32:12;18.00;58.60
81630;DHT22;71039;49.500;10.418;2023-07-22T07:34:37;18.10;58.70
81630;DHT22;71039;49.500;10.418;2023-07-22T07:37:03;18.10;58.80
81630;DHT22;71039;49.500;10.418;2023-07-22T07:39:28;18.10;59.00
81630;DHT22;71039;49.500;10.418;2023-07-22T07:41:54;18.20;59.20
81630;DHT22;71039;49.500;10.418;2023-07-22T07:44:19;18.30;59.20
81630;DHT22;71039;49.500;10.418;2023-07-22T07:46:45;18.30;59.20
81630;DHT22;71039;49.500;10.418;2023-07-22T07:49:10;18.40;59.20
81630;DHT22;71039;49.500;10.418;2023-07-22T07:51:36;18.50;59.10
81630;DHT22;71039;49.500;10.418;2023-07-22T07:54:01;18.60;59.00
81630;DHT22;71039;49.500;10.418;2023-07-22T07:56:27;18.70;59.00
81630;DHT22;71039;49.500;10.418;2023-07-22T07:58:53;18.70;59.00
81630;DHT22;71039;49.500;10.418;2023-07-22T08:01:19;18.80;59.00
81630;DHT22;71039;49.500;10.418;2023-07-22T08:03:45;18.90;59.00
81630;DHT22;71039;49.500;10.418;2023-07-22T08:06:11;19.00;58.70
81630;DHT22;71039;49.500;10.418;2023-07-22T08:08:38;19.10;58.50
81630;DHT22;71039;49.500;10.418;2023-07-22T08:11:12;19.20;58.40
81630;DHT22;71039;49.500;10.418;2023-07-22T08:13:37;19.30;58.30
81630;DHT22;71039;49.500;10.418;2023-07-22T08:16:04;19.40;58.00
81630;DHT22;71039;49.500;10.418;2023-07-22T08:18:31;19.40;57.80
81630;DHT22;71039;49.500;10.418;2023-07-22T08:20:57;19.50;57.70
81630;DHT22;71039;49.500;10.418;2023-07-22T08:23:23;19.50;57.70
81630;DHT22;71039;49.500;10.418;2023-07-22T08:25:49;19.60;57.50
81630;DHT22;71039;49.500;10.418;2023-07-22T08:28:15;19.70;57.70
81630;DHT22;71039;49.500;10.418;2023-07-22T08:30:41;19.80;58.00
81630;DHT22;71039;49.500;10.418;2023-07-22T08:33:07;19.90;58.20
81630;DHT22;71039;49.500;10.418;2023-07-22T08:35:34;20.00;58.00
81630;DHT22;71039;49.500;10.418;2023-07-22T08:37:59;20.20;57.60
81630;DHT22;71039;49.500;10.418;2023-07-22T08:40:25;20.30;57.10
81630;DHT22;71039;49.500;10.418;2023-07-22T08:42:50;20.50;56.80
81630;DHT22;71039;49.500;10.418;2023-07-22T08:45:16;20.60;56.60
81630;DHT22;71039;49.500;10.418;2023-07-22T08:47:46;20.70;56.50
81630;DHT22;71039;49.500;10.418;2023-07-22T08:50:16;20.90;56.20
81630;DHT22;71039;49.500;10.418;2023-07-22T08:52:45;21.00;56.20
81630;DHT22;71039;49.500;10.418;2023-07-22T08:55:12;21.10;56.30
81630;DHT22;71039;49.500;10.418;2023-07-22T08:57:38;21.30;55.70
81630;DHT22;71039;49.500;10.418;2023-07-22T09:00:05;21.40;55.40
81630;DHT22;71039;49.500;10.418;2023-07-22T09:02:33;21.50;54.90
81630;DHT22;71039;49.500;10.418;2023-07-22T09:04:59;21.70;54.50
81630;DHT22;71039;49.500;10.418;2023-07-22T09:07:25;21.70;54.10
81630;DHT22;71039;49.500;10.418;2023-07-22T09:09:51;21.80;53.70
81630;DHT22;71039;49.500;10.418;2023-07-22T09:12:18;21.90;53.40
81630;DHT22;71039;49.500;10.418;2023-07-22T09:14:45;21.90;53.30
81630;DHT22;71039;49.500;10.418;2023-07-22T09:17:10;21.90;53.30
81630;DHT22;71039;49.500;10.418;2023-07-22T09:19:36;21.90;53.20
81630;DHT22;71039;49.500;10.418;2023-07-22T09:22:02;21.90;53.00
81630;DHT22;71039;49.500;10.418;2023-07-22T09:24:27;22.00;52.80
81630;DHT22;71039;49.500;10.418;2023-07-22T09:26:53;22.00;52.70
81630;DHT22;71039;49.500;10.418;2023-07-22T09:29:18;22.00;52.80
81630;DHT22;71039;49.500;10.418;2023-07-22T09:31:57;22.10;52.80
81630;DHT22;71039;49.500;10.418;2023-07-22T09:34:22;22.10;53.20
81630;DHT22;71039;49.500;10.418;2023-07-22T09:36:55;22.20;53.60
81630;DHT22;71039;49.500;10.418;2023-07-22T09:39:21;22.30;53.50
81630;DHT22;71039;49.500;10.418;2023-07-22T09:41:48;22.50;53.60
81630;DHT22;71039;49.500;10.418;2023-07-22T09:44:13;22.60;53.40
81630;DHT22;71039;49.500;10.418;2023-07-22T09:46:39;22.70;53.10
81630;DHT22;71039;49.500;10.418;2023-07-22T09:49:06;22.90;53.10
81630;DHT22;71039;49.500;10.418;2023-07-22T09:51:34;23.10;53.30
81630;DHT22;71039;49.500;10.418;2023-07-22T09:54:00;23.30;52.90
81630;DHT22;71039;49.500;10.418;2023-07-22T09:56:26;23.40;52.20
81630;DHT22;71039;49.500;10.418;2023-07-22T09:58:52;23.60;52.10
81630;DHT22;71039;49.500;10.418;2023-07-22T10:01:23;23.80;51.70
81630;DHT22;71039;49.500;10.418;2023-07-22T10:03:55;23.90;51.30
81630;DHT22;71039;49.500;10.418;2023-07-22T10:06:24;24.00;51.50
81630;DHT22;71039;49.500;10.418;2023-07-22T10:08:51;24.20;51.00
81630;DHT22;71039;49.500;10.418;2023-07-22T10:11:18;24.40;50.90
81630;DHT22;71039;49.500;10.418;2023-07-22T10:13:44;24.50;50.70
81630;DHT22;71039;49.500;10.418;2023-07-22T10:16:10;24.70;50.10
81630;DHT22;71039;49.500;10.418;2023-07-22T10:18:36;24.90;49.20
81630;DHT22;71039;49.500;10.418;2023-07-22T10:21:03;25.00;48.90
81630;DHT22;71039;49.500;10.418;2023-07-22T10:23:29;25.00;48.60
81630;DHT22;71039;49.500;10.418;2023-07-22T10:25:57;25.20;48.40
81630;DHT22;71039;49.500;10.418;2023-07-22T10:28:23;25.30;48.30
81630;DHT22;71039;49.500;10.418;2023-07-22T10:30:49;25.40;48.20
81630;DHT22;71039;49.500;10.418;2023-07-22T10:33:16;25.50;47.70
81630;DHT22;71039;49.500;10.418;2023-07-22T10:35:43;25.60;47.50
81630;DHT22;71039;49.500;10.418;2023-07-22T10:38:14;25.80;47.40
81630;DHT22;71039;49.500;10.418;2023-07-22T10:40:46;25.90;47.00
81630;DHT22;71039;49.500;10.418;2023-07-22T10:43:12;26.00;46.50
81630;DHT22;71039;49.500;10.418;2023-07-22T10:45:42;26.10;46.60
81630;DHT22;71039;49.500;10.418;2023-07-22T10:48:10;26.20;45.80
81630;DHT22;71039;49.500;10.418;2023-07-22T10:50:41;26.30;45.70
81630;DHT22;71039;49.500;10.418;2023-07-22T10:53:11;26.40;45.40
81630;DHT22;71039;49.500;10.418;2023-07-22T10:56:12;26.40;45.40
81630;DHT22;71039;49.500;10.418;2023-07-22T11:01:22;26.40;44.90
81630;DHT22;71039;49.500;10.418;2023-07-22T11:04:04;26.40;44.60
81630;DHT22;71039;49.500;10.418;2023-07-22T11:06:30;26.50;45.00
81630;DHT22;71039;49.500;10.418;2023-07-22T11:08:56;26.60;46.00
81630;DHT22;71039;49.500;10.418;2023-07-22T11:11:37;26.70;45.40
81630;DHT22;71039;49.500;10.418;2023-07-22T11:14:22;26.90;44.40
81630;DHT22;71039;49.500;10.418;2023-07-22T11:16:48;27.00;44.40
81630;DHT22;71039;49.500;10.418;2023-07-22T11:19:16;27.20;45.10
81630;DHT22;71039;49.500;10.418;2023-07-22T11:21:42;27.30;44.40
81630;DHT22;71039;49.500;10.418;2023-07-22T11:24:08;27.50;43.80
81630;DHT22;71039;49.500;10.418;2023-07-22T11:26:34;27.50;43.40
81630;DHT22;71039;49.500;10.418;2023-07-22T11:29:01;27.60;42.80
81630;DHT22;71039;49.500;10.418;2023-07-22T11:31:33;27.70;42.70
81630;DHT22;71039;49.500;10.418;2023-07-22T11:33:59;27.80;42.60
81630;DHT22;71039;49.500;10.418;2023-07-22T11:36:28;27.80;42.80
81630;DHT22;71039;49.500;10.418;2023-07-22T11:38:54;27.90;42.50
81630;DHT22;71039;49.500;10.418;2023-07-22T11:41:26;28.00;42.30
81630;DHT22;71039;49.500;10.418;2023-07-22T11:43:52;28.10;41.80
81630;DHT22;71039;49.500;10.418;2023-07-22T11:46:17;28.10;41.20
81630;DHT22;71039;49.500;10.418;2023-07-22T11:48:50;28.20;40.80
81630;DHT22;71039;49.500;10.418;2023-07-22T11:51:18;28.20;40.60
81630;DHT22;71039;49.500;10.418;2023-07-22T11:53:47;28.30;41.10
81630;DHT22;71039;49.500;10.418;2023-07-22T11:56:12;28.30;40.80
81630;DHT22;71039;49.500;10.418;2023-07-22T11:58:38;28.50;40.50
81630;DHT22;71039;49.500;10.418;2023-07-22T12:01:06;28.50;40.20
81630;DHT22;71039;49.500;10.418;2023-07-22T12:03:33;28.60;40.00
81630;DHT22;71039;49.500;10.418;2023-07-22T12:06:06;28.60;39.90
81630;DHT22;71039;49.500;10.418;2023-07-22T12:08:33;28.70;39.20
81630;DHT22;71039;49.500;10.418;2023-07-22T12:10:59;28.70;39.80
81630;DHT22;71039;49.500;10.418;2023-07-22T12:13:24;28.80;39.50
81630;DHT22;71039;49.500;10.418;2023-07-22T12:16:03;28.90;39.60
81630;DHT22;71039;49.500;10.418;2023-07-22T12:18:41;29.00;38.50
81630;DHT22;71039;49.500;10.418;2023-07-22T12:21:07;29.00;38.00
81630;DHT22;71039;49.500;10.418;2023-07-22T12:23:32;29.10;38.50
81630;DHT22;71039;49.500;10.418;2023-07-22T12:25:58;29.10;38.20
81630;DHT22;71039;49.500;10.418;2023-07-22T12:28:23;29.10;38.00
81630;DHT22;71039;49.500;10.418;2023-07-22T12:30:49;29.10;37.80
81630;DHT22;71039;49.500;10.418;2023-07-22T12:33:14;29.10;37.60
81630;DHT22;71039;49.500;10.418;2023-07-22T12:35:40;29.10;37.50
81630;DHT22;71039;49.500;10.418;2023-07-22T12:38:05;29.00;37.60
81630;DHT22;71039;49.500;10.418;2023-07-22T12:40:31;29.00;37.70
81630;DHT22;71039;49.500;10.418;2023-07-22T12:42:56;29.00;37.70
81630;DHT22;71039;49.500;10.418;2023-07-22T12:45:22;29.00;37.80
81630;DHT22;71039;49.500;10.418;2023-07-22T12:47:47;29.00;37.60
81630;DHT22;71039;49.500;10.418;2023-07-22T12:50:13;29.10;37.50
81630;DHT22;71039;49.500;10.418;2023-07-22T12:52:38;29.10;37.20
81630;DHT22;71039;49.500;10.418;2023-07-22T12:55:04;29.10;37.10
81630;DHT22;71039;49.500;10.418;2023-07-22T12:57:30;29.20;37.10
81630;DHT22;71039;49.500;10.418;2023-07-22T12:59:55;29.20;37.20
81630;DHT22;71039;49.500;10.418;2023-07-22T13:02:21;29.20;37.10
81630;DHT22;71039;49.500;10.418;2023-07-22T13:04:46;29.30;37.00
81630;DHT22;71039;49.500;10.418;2023-07-22T13:07:12;29.30;37.10
81630;DHT22;71039;49.500;10.418;2023-07-22T13:09:37;29.40;37.10
81630;DHT22;71039;49.500;10.418;2023-07-22T13:12:03;29.40;36.80
81630;DHT22;71039;49.500;10.418;2023-07-22T13:14:28;29.50;36.40
81630;DHT22;71039;49.500;10.418;2023-07-22T13:16:54;29.50;36.10
81630;DHT22;71039;49.500;10.418;2023-07-22T13:19:19;29.50;36.00
81630;DHT22;71039;49.500;10.418;2023-07-22T13:21:45;29.50;36.00
81630;DHT22;71039;49.500;10.418;2023-07-22T13:24:10;29.50;36.00
81630;DHT22;71039;49.500;10.418;2023-07-22T13:26:36;29.50;36.10
81630;DHT22;71039;49.500;10.418;2023-07-22T13:29:01;29.50;36.00
81630;DHT22;71039;49.500;10.418;2023-07-22T13:31:27;29.50;36.00
81630;DHT22;71039;49.500;10.418;2023-07-22T13:33:52;29.50;35.80
81630;DHT22;71039;49.500;10.418;2023-07-22T13:36:18;29.60;35.80
81630;DHT22;71039;49.500;10.418;2023-07-22T13:38:43;29.60;35.60
81630;DHT22;71039;49.500;10.418;2023-07-22T13:41:09;29.70;35.50
81630;DHT22;71039;49.500;10.418;2023-07-22T13:43:35;29.70;35.40
81630;DHT22;71039;49.500;10.418;2023-07-22T13:46:00;29.70;35.30
81630;DHT22;71039;49.500;10.418;2023-07-22T13:48:26;29.70;35.30
81630;DHT22;71039;49.500;10.418;2023-07-22T13:50:51;29.70;35.30
81630;DHT22;71039;49.500;10.418;2023-07-22T13:53:17;29.70;35.10
81630;DHT22;71039;49.500;10.418;2023-07-22T13:55:42;29.70;35.00
81630;DHT22;71039;49.500;10.418;2023-07-22T13:58:08;29.60;34.80
81630;DHT22;71039;49.500;10.418;2023-07-22T14:00:34;29.60;34.90
81630;DHT22;71039;49.500;10.418;2023-07-22T14:02:59;29.50;35.00
81630;DHT22;71039;49.500;10.418;2023-07-22T14:05:25;29.50;35.00
81630;DHT22;71039;49.500;10.418;2023-07-22T14:07:50;29.50;35.20
81630;DHT22;71039;49.500;10.418;2023-07-22T14:10:16;29.60;35.00
81630;DHT22;71039;49.500;10.418;2023-07-22T14:12:41;29.60;34.80
81630;DHT22;71039;49.500;10.418;2023-07-22T14:15:07;29.60;34.30
81630;DHT22;71039;49.500;10.418;2023-07-22T14:17:33;29.60;34.40
81630;DHT22;71039;49.500;10.418;2023-07-22T14:19:58;29.60;34.60
81630;DHT22;71039;49.500;10.418;2023-07-22T14:22:24;29.70;34.60
81630;DHT22;71039;49.500;10.418;2023-07-22T14:24:49;29.70;34.50
81630;DHT22;71039;49.500;10.418;2023-07-22T14:27:15;29.70;34.20
81630;DHT22;71039;49.500;10.418;2023-07-22T14:29:40;29.70;34.00
81630;DHT22;71039;49.500;10.418;2023-07-22T14:32:06;29.70;33.80
81630;DHT22;71039;49.500;10.418;2023-07-22T14:34:32;29.70;33.70
81630;DHT22;71039;49.500;10.418;2023-07-22T14:36:57;29.60;33.70
81630;DHT22;71039;49.500;10.418;2023-07-22T14:39:23;29.50;33.70
81630;DHT22;71039;49.500;10.418;2023-07-22T14:41:49;29.50;33.80
81630;DHT22;71039;49.500;10.418;2023-07-22T14:44:14;29.50;33.90
81630;DHT22;71039;49.500;10.418;2023-07-22T14:46:40;29.50;33.80
81630;DHT22;71039;49.500;10.418;2023-07-22T14:49:05;29.50;33.70
81630;DHT22;71039;49.500;10.418;2023-07-22T14:51:31;29.50;33.60
81630;DHT22;71039;49.500;10.418;2023-07-22T14:53:56;29.50;33.50
81630;DHT22;71039;49.500;10.418;2023-07-22T14:56:22;29.60;33.50
81630;DHT22;71039;49.500;10.418;2023-07-22T14:58:47;29.60;33.40
81630;DHT22;71039;49.500;10.418;2023-07-22T15:01:13;29.60;33.50
81630;DHT22;71039;49.500;10.418;2023-07-22T15:03:38;29.60;33.60
81630;DHT22;71039;49.500;10.418;2023-07-22T15:06:04;29.70;33.50
81630;DHT22;71039;49.500;10.418;2023-07-22T15:08:30;29.70;33.40
81630;DHT22;71039;49.500;10.418;2023-07-22T15:10:55;29.70;33.20